sensor_id;sensor_type;location;lat;lon;timestamp;temperature;humidity
52919;DHT22;38793;52.690;6.812;2022-09-09T00:01:14;15.30;99.90
52919;DHT22;38793;52.690;6.812;2022-09-09T00:04:53;15.30;99.90
52919;DHT22;38793;52.690;6.812;2022-09-09T00:09:28;15.30;99.90
52919;DHT22;38793;52.690;6.812;2022-09-09T00:12:00;15.30;99.90
52919;DHT22;38793;52.690;6.812;2022-09-09T00:14:46;15.30;99.90
52919;DHT22;38793;52.690;6.812;2022-09-09T00:20:02;15.30;99.90
52919;DHT22;38793;52.690;6.812;2022-09-09T00:22:30;15.20;99.90
52919;DHT22;38793;52.690;6.812;2022-09-09T00:25:12;15.20;99.90
52919;DHT22;38793;52.690;6.812;2022-09-09T00:27:47;15.10;99.90
52919;DHT22;38793;52.690;6.812;2022-09-09T00:32:46;15.10;99.90
52919;DHT22;38793;52.690;6.812;2022-09-09T00:35:22;15.00;99.90
52919;DHT22;38793;52.690;6.812;2022-09-09T00:37:52;15.00;99.90
52919;DHT22;38793;52.690;6.812;2022-09-09T00:40:33;15.00;99.90
52919;DHT22;38793;52.690;6.812;2022-09-09T00:43:12;15.00;99.90
52919;DHT22;38793;52.690;6.812;2022-09-09T00:48:56;15.00;99.90
52919;DHT22;38793;52.690;6.812;2022-09-09T00:54:38;15.10;99.90
52919;DHT22;38793;52.690;6.812;2022-09-09T00:57:14;15.10;99.90
52919;DHT22;38793;52.690;6.812;2022-09-09T00:59:48;15.10;99.90
52919;DHT22;38793;52.690;6.812;2022-09-09T01:04:43;15.10;99.90
52919;DHT22;38793;52.690;6.812;2022-09-09T01:07:17;15.10;99.90
52919;DHT22;38793;52.690;6.812;2022-09-09T01:09:58;15.10;99.90
52919;DHT22;38793;52.690;6.812;2022-09-09T01:12:42;15.10;99.90
52919;DHT22;38793;52.690;6.812;2022-09-09T01:15:21;15.10;99.90
52919;DHT22;38793;52.690;6.812;2022-09-09T01:18:10;15.10;99.90
52919;DHT22;38793;52.690;6.812;2022-09-09T01:26:40;15.10;99.90
52919;DHT22;38793;52.690;6.812;2022-09-09T01:28:59;15.10;99.90
52919;DHT22;38793;52.690;6.812;2022-09-09T01:31:41;15.20;99.90
52919;DHT22;38793;52.690;6.812;2022-09-09T01:34:14;15.10;99.90
52919;DHT22;38793;52.690;6.812;2022-09-09T01:36:46;15.10;99.90
52919;DHT22;38793;52.690;6.812;2022-09-09T01:39:15;15.10;99.90
52919;DHT22;38793;52.690;6.812;2022-09-09T01:41:41;15.10;99.90
52919;DHT22;38793;52.690;6.812;2022-09-09T01:44:07;15.10;99.90
52919;DHT22;38793;52.690;6.812;2022-09-09T01:46:33;15.10;99.90
52919;DHT22;38793;52.690;6.812;2022-09-09T01:49:00;15.00;99.90
52919;DHT22;38793;52.690;6.812;2022-09-09T01:51:28;15.00;99.90
52919;DHT22;38793;52.690;6.812;2022-09-09T01:53:53;15.00;99.90
52919;DHT22;38793;52.690;6.812;2022-09-09T01:56:35;15.00;99.90
52919;DHT22;38793;52.690;6.812;2022-09-09T01:59:31;15.00;99.90
52919;DHT22;38793;52.690;6.812;2022-09-09T02:04:46;15.00;99.90
52919;DHT22;38793;52.690;6.812;2022-09-09T02:10:26;15.00;99.90
52919;DHT22;38793;52.690;6.812;2022-09-09T02:13:04;15.00;99.90
52919;DHT22;38793;52.690;6.812;2022-09-09T02:15:35;15.00;99.90
52919;DHT22;38793;52.690;6.812;2022-09-09T02:18:08;15.00;99.90
52919;DHT22;38793;52.690;6.812;2022-09-09T02:20:38;15.00;99.90
52919;DHT22;38793;52.690;6.812;2022-09-09T02:23:05;15.00;99.90
52919;DHT22;38793;52.690;6.812;2022-09-09T02:25:35;14.90;99.90
52919;DHT22;38793;52.690;6.812;2022-09-09T02:28:03;14.90;99.90
52919;DHT22;38793;52.690;6.812;2022-09-09T02:30:32;14.90;99.90
52919;DHT22;38793;52.690;6.812;2022-09-09T02:33:00;14.90;99.90
52919;DHT22;38793;52.690;6.812;2022-09-09T02:35:29;14.90;99.90
52919;DHT22;38793;52.690;6.812;2022-09-09T02:37:59;14.90;99.90
52919;DHT22;38793;52.690;6.812;2022-09-09T02:40:26;14.90;99.90
52919;DHT22;38793;52.690;6.812;2022-09-09T02:42:51;14.80;99.90
52919;DHT22;38793;52.690;6.812;2022-09-09T02:45:20;14.80;99.90
52919;DHT22;38793;52.690;6.812;2022-09-09T02:48:02;14.80;99.90
52919;DHT22;38793;52.690;6.812;2022-09-09T02:50:39;14.70;99.90
52919;DHT22;38793;52.690;6.812;2022-09-09T02:53:17;14.70;99.90
52919;DHT22;38793;52.690;6.812;2022-09-09T02:56:00;14.60;99.90
52919;DHT22;38793;52.690;6.812;2022-09-09T02:58:29;14.60;99.90
52919;DHT22;38793;52.690;6.812;2022-09-09T03:00:55;14.50;99.90
52919;DHT22;38793;52.690;6.812;2022-09-09T03:03:23;14.50;99.90
52919;DHT22;38793;52.690;6.812;2022-09-09T03:05:49;14.50;99.90
52919;DHT22;38793;52.690;6.812;2022-09-09T03:08:15;14.50;99.90
52919;DHT22;38793;52.690;6.812;2022-09-09T03:10:41;14.50;99.90
52919;DHT22;38793;52.690;6.812;2022-09-09T03:13:07;14.50;99.90
52919;DHT22;38793;52.690;6.812;2022-09-09T03:15:33;14.50;99.90
52919;DHT22;38793;52.690;6.812;2022-09-09T03:17:59;14.50;99.90
52919;DHT22;38793;52.690;6.812;2022-09-09T03:20:26;14.50;99.90
52919;DHT22;38793;52.690;6.812;2022-09-09T03:22:53;14.50;99.90
52919;DHT22;38793;52.690;6.812;2022-09-09T03:25:20;14.50;99.90
52919;DHT22;38793;52.690;6.812;2022-09-09T03:27:46;14.50;99.90
52919;DHT22;38793;52.690;6.812;2022-09-09T03:30:12;14.50;99.90
52919;DHT22;38793;52.690;6.812;2022-09-09T03:32:37;14.50;99.90
52919;DHT22;38793;52.690;6.812;2022-09-09T03:35:03;14.50;99.90
52919;DHT22;38793;52.690;6.812;2022-09-09T03:37:29;14.50;99.90
52919;DHT22;38793;52.690;6.812;2022-09-09T03:39:54;14.50;99.90
52919;DHT22;38793;52.690;6.812;2022-09-09T03:42:20;14.50;99.90
52919;DHT22;38793;52.690;6.812;2022-09-09T03:44:47;14.50;99.90
52919;DHT22;38793;52.690;6.812;2022-09-09T03:47:17;14.60;99.90
52919;DHT22;38793;52.690;6.812;2022-09-09T03:49:43;14.50;99.90
52919;DHT22;38793;52.690;6.812;2022-09-09T03:52:09;14.60;99.90
52919;DHT22;38793;52.690;6.812;2022-09-09T03:54:35;14.50;99.90
52919;DHT22;38793;52.690;6.812;2022-09-09T03:57:01;14.60;99.90
52919;DHT22;38793;52.690;6.812;2022-09-09T03:59:27;14.60;99.90
52919;DHT22;38793;52.690;6.812;2022-09-09T04:01:53;14.60;99.90
52919;DHT22;38793;52.690;6.812;2022-09-09T04:04:18;14.60;99.90
52919;DHT22;38793;52.690;6.812;2022-09-09T04:06:45;14.60;99.90
52919;DHT22;38793;52.690;6.812;2022-09-09T04:09:11;14.50;99.90
52919;DHT22;38793;52.690;6.812;2022-09-09T04:11:37;14.50;99.90
52919;DHT22;38793;52.690;6.812;2022-09-09T04:14:03;14.60;99.90
52919;DHT22;38793;52.690;6.812;2022-09-09T04:16:31;14.50;99.90
52919;DHT22;38793;52.690;6.812;2022-09-09T04:18:57;14.50;99.90
52919;DHT22;38793;52.690;6.812;2022-09-09T04:21:23;14.50;99.90
52919;DHT22;38793;52.690;6.812;2022-09-09T04:23:49;14.50;99.90
52919;DHT22;38793;52.690;6.812;2022-09-09T04:26:14;14.50;99.90
52919;DHT22;38793;52.690;6.812;2022-09-09T04:28:40;14.50;99.90
52919;DHT22;38793;52.690;6.812;2022-09-09T04:31:18;14.40;99.90
52919;DHT22;38793;52.690;6.812;2022-09-09T04:33:45;14.50;99.90
52919;DHT22;38793;52.690;6.812;2022-09-09T04:36:12;14.40;99.90
52919;DHT22;38793;52.690;6.812;2022-09-09T04:38:38;14.40;99.90
52919;DHT22;38793;52.690;6.812;2022-09-09T04:41:03;14.40;99.90
52919;DHT22;38793;52.690;6.812;2022-09-09T04:43:29;14.40;99.90
52919;DHT22;38793;52.690;6.812;2022-09-09T04:45:56;14.40;99.90
52919;DHT22;38793;52.690;6.812;2022-09-09T04:48:22;14.40;99.90
52919;DHT22;38793;52.690;6.812;2022-09-09T04:51:08;14.40;99.90
52919;DHT22;38793;52.690;6.812;2022-09-09T04:53:35;14.40;99.90
52919;DHT22;38793;52.690;6.812;2022-09-09T04:56:03;14.40;99.90
52919;DHT22;38793;52.690;6.812;2022-09-09T04:58:29;14.30;99.90
52919;DHT22;38793;52.690;6.812;2022-09-09T05:01:02;14.30;99.90
52919;DHT22;38793;52.690;6.812;2022-09-09T05:03:27;14.30;99.90
52919;DHT22;38793;52.690;6.812;2022-09-09T05:05:54;14.30;99.90
52919;DHT22;38793;52.690;6.812;2022-09-09T05:08:19;14.30;99.90
52919;DHT22;38793;52.690;6.812;2022-09-09T05:10:46;14.30;99.90
52919;DHT22;38793;52.690;6.812;2022-09-09T05:13:11;14.30;99.90
52919;DHT22;38793;52.690;6.812;2022-09-09T05:15:37;14.20;99.90
52919;DHT22;38793;52.690;6.812;2022-09-09T05:18:02;14.20;99.90
52919;DHT22;38793;52.690;6.812;2022-09-09T05:20:28;14.20;99.90
52919;DHT22;38793;52.690;6.812;2022-09-09T05:22:55;14.20;99.90
52919;DHT22;38793;52.690;6.812;2022-09-09T05:25:22;14.20;99.90
52919;DHT22;38793;52.690;6.812;2022-09-09T05:27:47;14.20;99.90
52919;DHT22;38793;52.690;6.812;2022-09-09T05:30:14;14.10;99.90
52919;DHT22;38793;52.690;6.812;2022-09-09T05:32:40;14.10;99.90
52919;DHT22;38793;52.690;6.812;2022-09-09T05:35:06;14.10;99.90
52919;DHT22;38793;52.690;6.812;2022-09-09T05:37:32;14.10;99.90
52919;DHT22;38793;52.690;6.812;2022-09-09T05:39:57;14.10;99.90
52919;DHT22;38793;52.690;6.812;2022-09-09T05:42:23;14.20;99.90
52919;DHT22;38793;52.690;6.812;2022-09-09T05:44:49;14.20;99.90
52919;DHT22;38793;52.690;6.812;2022-09-09T05:47:16;14.20;99.90
52919;DHT22;38793;52.690;6.812;2022-09-09T05:49:42;14.30;99.90
52919;DHT22;38793;52.690;6.812;2022-09-09T05:52:08;14.30;99.90
52919;DHT22;38793;52.690;6.812;2022-09-09T05:54:35;14.40;99.90
52919;DHT22;38793;52.690;6.812;2022-09-09T05:57:00;14.40;99.90
52919;DHT22;38793;52.690;6.812;2022-09-09T05:59:26;14.50;99.90
52919;DHT22;38793;52.690;6.812;2022-09-09T06:01:51;14.50;99.90
52919;DHT22;38793;52.690;6.812;2022-09-09T06:04:17;14.50;99.90
52919;DHT22;38793;52.690;6.812;2022-09-09T06:06:43;14.50;99.90
52919;DHT22;38793;52.690;6.812;2022-09-09T06:09:09;14.50;99.90
52919;DHT22;38793;52.690;6.812;2022-09-09T06:11:37;14.60;99.90
52919;DHT22;38793;52.690;6.812;2022-09-09T06:14:04;14.60;99.90
52919;DHT22;38793;52.690;6.812;2022-09-09T06:16:30;14.60;99.90
52919;DHT22;38793;52.690;6.812;2022-09-09T06:18:58;14.70;99.90
52919;DHT22;38793;52.690;6.812;2022-09-09T06:21:26;14.70;99.90
52919;DHT22;38793;52.690;6.812;2022-09-09T06:23:52;14.70;99.90
52919;DHT22;38793;52.690;6.812;2022-09-09T06:26:35;14.80;99.90
52919;DHT22;38793;52.690;6.812;2022-09-09T06:29:02;14.80;99.90
52919;DHT22;38793;52.690;6.812;2022-09-09T06:31:30;14.90;99.90
52919;DHT22;38793;52.690;6.812;2022-09-09T06:33:58;14.90;99.90
52919;DHT22;38793;52.690;6.812;2022-09-09T06:36:26;15.00;99.90
52919;DHT22;38793;52.690;6.812;2022-09-09T06:38:52;15.00;99.90
52919;DHT22;38793;52.690;6.812;2022-09-09T06:41:19;15.00;99.90
52919;DHT22;38793;52.690;6.812;2022-09-09T06:43:47;15.10;99.90
52919;DHT22;38793;52.690;6.812;2022-09-09T06:46:15;15.10;99.90
52919;DHT22;38793;52.690;6.812;2022-09-09T06:48:42;15.10;99.90
52919;DHT22;38793;52.690;6.812;2022-09-09T06:51:12;15.10;99.90
52919;DHT22;38793;52.690;6.812;2022-09-09T06:53:39;15.10;99.90
52919;DHT22;38793;52.690;6.812;2022-09-09T06:56:18;15.20;99.90
52919;DHT22;38793;52.690;6.812;2022-09-09T06:58:44;15.20;99.90
52919;DHT22;38793;52.690;6.812;2022-09-09T07:01:15;15.30;99.90
52919;DHT22;38793;52.690;6.812;2022-09-09T07:03:44;15.40;99.90
52919;DHT22;38793;52.690;6.812;2022-09-09T07:06:14;15.50;99.90
52919;DHT22;38793;52.690;6.812;2022-09-09T07:08:42;15.60;99.90
52919;DHT22;38793;52.690;6.812;2022-09-09T07:11:08;15.70;99.90
52919;DHT22;38793;52.690;6.812;2022-09-09T07:13:35;15.80;99.90
52919;DHT22;38793;52.690;6.812;2022-09-09T07:16:08;15.80;99.90
52919;DHT22;38793;52.690;6.812;2022-09-09T07:18:35;15.90;99.90
52919;DHT22;38793;52.690;6.812;2022-09-09T07:21:01;15.90;99.90
52919;DHT22;38793;52.690;6.812;2022-09-09T07:23:27;16.00;99.90
52919;DHT22;38793;52.690;6.812;2022-09-09T07:25:53;16.00;99.90
52919;DHT22;38793;52.690;6.812;2022-09-09T07:28:20;16.10;99.90
52919;DHT22;38793;52.690;6.812;2022-09-09T07:30:54;16.10;99.90
52919;DHT22;38793;52.690;6.812;2022-09-09T07:33:19;16.20;99.90
52919;DHT22;38793;52.690;6.812;2022-09-09T07:35:45;16.40;99.90
52919;DHT22;38793;52.690;6.812;2022-09-09T07:38:11;16.50;99.90
52919;DHT22;38793;52.690;6.812;2022-09-09T07:40:37;16.50;99.90
52919;DHT22;38793;52.690;6.812;2022-09-09T07:43:02;16.70;99.90
52919;DHT22;38793;52.690;6.812;2022-09-09T07:45:28;16.80;99.90
52919;DHT22;38793;52.690;6.812;2022-09-09T07:47:54;16.90;99.90
52919;DHT22;38793;52.690;6.812;2022-09-09T07:50:22;17.00;99.90
52919;DHT22;38793;52.690;6.812;2022-09-09T07:52:50;17.00;99.90
52919;DHT22;38793;52.690;6.812;2022-09-09T07:55:16;17.00;99.90
52919;DHT22;38793;52.690;6.812;2022-09-09T07:57:41;17.00;99.90
52919;DHT22;38793;52.690;6.812;2022-09-09T08:00:07;17.10;99.90
52919;DHT22;38793;52.690;6.812;2022-09-09T08:02:33;17.10;99.90
52919;DHT22;38793;52.690;6.812;2022-09-09T08:04:58;17.10;99.90
52919;DHT22;38793;52.690;6.812;2022-09-09T08:07:24;17.10;99.90
52919;DHT22;38793;52.690;6.812;2022-09-09T08:09:50;17.00;99.90
52919;DHT22;38793;52.690;6.812;2022-09-09T08:12:15;17.10;99.90
52919;DHT22;38793;52.690;6.812;2022-09-09T08:14:41;17.10;99.90
52919;DHT22;38793;52.690;6.812;2022-09-09T08:17:07;17.10;99.90
52919;DHT22;38793;52.690;6.812;2022-09-09T08:19:33;17.20;99.90
52919;DHT22;38793;52.690;6.812;2022-09-09T08:22:01;17.20;99.90
52919;DHT22;38793;52.690;6.812;2022-09-09T08:24:27;17.20;99.90
52919;DHT22;38793;52.690;6.812;2022-09-09T08:26:53;17.30;99.90
52919;DHT22;38793;52.690;6.812;2022-09-09T08:29:19;17.20;99.90
52919;DHT22;38793;52.690;6.812;2022-09-09T08:31:49;17.20;99.90
52919;DHT22;38793;52.690;6.812;2022-09-09T08:34:16;17.20;99.90
52919;DHT22;38793;52.690;6.812;2022-09-09T08:36:46;17.30;99.90
52919;DHT22;38793;52.690;6.812;2022-09-09T08:39:14;17.30;99.90
52919;DHT22;38793;52.690;6.812;2022-09-09T08:47:22;17.30;99.90
52919;DHT22;38793;52.690;6.812;2022-09-09T08:52:51;17.40;99.90
52919;DHT22;38793;52.690;6.812;2022-09-09T08:58:17;17.40;99.90
52919;DHT22;38793;52.690;6.812;2022-09-09T09:01:23;17.40;99.90
52919;DHT22;38793;52.690;6.812;2022-09-09T09:06:30;17.50;99.90
52919;DHT22;38793;52.690;6.812;2022-09-09T09:11:36;17.60;99.90
52919;DHT22;38793;52.690;6.812;2022-09-09T09:14:17;17.70;99.90
52919;DHT22;38793;52.690;6.812;2022-09-09T09:16:54;17.80;99.90
52919;DHT22;38793;52.690;6.812;2022-09-09T09:19:22;17.90;99.90
52919;DHT22;38793;52.690;6.812;2022-09-09T09:24:27;18.10;99.90
52919;DHT22;38793;52.690;6.812;2022-09-09T09:26:58;18.20;99.90
52919;DHT22;38793;52.690;6.812;2022-09-09T09:29:26;18.30;99.90
52919;DHT22;38793;52.690;6.812;2022-09-09T09:31:55;18.50;99.90
52919;DHT22;38793;52.690;6.812;2022-09-09T09:34:21;18.60;99.90
52919;DHT22;38793;52.690;6.812;2022-09-09T09:36:59;18.60;99.90
52919;DHT22;38793;52.690;6.812;2022-09-09T09:39:30;18.60;99.90
52919;DHT22;38793;52.690;6.812;2022-09-09T09:41:56;18.60;99.90
52919;DHT22;38793;52.690;6.812;2022-09-09T09:46:52;18.60;99.90
52919;DHT22;38793;52.690;6.812;2022-09-09T09:49:17;18.70;99.90
52919;DHT22;38793;52.690;6.812;2022-09-09T09:51:43;18.70;99.90
52919;DHT22;38793;52.690;6.812;2022-09-09T09:54:22;18.80;99.90
52919;DHT22;38793;52.690;6.812;2022-09-09T09:56:51;18.80;99.90
52919;DHT22;38793;52.690;6.812;2022-09-09T09:59:43;18.70;99.90
52919;DHT22;38793;52.690;6.812;2022-09-09T10:02:17;18.70;99.90
52919;DHT22;38793;52.690;6.812;2022-09-09T10:04:43;18.70;99.90
52919;DHT22;38793;52.690;6.812;2022-09-09T10:07:18;18.70;99.90
52919;DHT22;38793;52.690;6.812;2022-09-09T10:09:44;18.80;99.90
52919;DHT22;38793;52.690;6.812;2022-09-09T10:18:00;18.80;99.90
52919;DHT22;38793;52.690;6.812;2022-09-09T10:20:46;18.80;99.90
52919;DHT22;38793;52.690;6.812;2022-09-09T10:26:32;19.20;99.90
52919;DHT22;38793;52.690;6.812;2022-09-09T10:35:09;19.70;99.90
52919;DHT22;38793;52.690;6.812;2022-09-09T10:40:39;19.90;99.90
52919;DHT22;38793;52.690;6.812;2022-09-09T10:46:12;19.90;99.90
52919;DHT22;38793;52.690;6.812;2022-09-09T10:52:07;19.90;99.90
52919;DHT22;38793;52.690;6.812;2022-09-09T10:57:32;19.80;99.90
52919;DHT22;38793;52.690;6.812;2022-09-09T11:00:06;19.80;99.90
52919;DHT22;38793;52.690;6.812;2022-09-09T11:02:39;20.00;99.90
52919;DHT22;38793;52.690;6.812;2022-09-09T11:05:18;20.10;99.70
52919;DHT22;38793;52.690;6.812;2022-09-09T11:07:52;20.10;99.20
52919;DHT22;38793;52.690;6.812;2022-09-09T11:10:40;20.00;98.90
52919;DHT22;38793;52.690;6.812;2022-09-09T11:13:24;20.00;99.20
52919;DHT22;38793;52.690;6.812;2022-09-09T11:15:55;20.00;99.20
52919;DHT22;38793;52.690;6.812;2022-09-09T11:18:23;20.00;99.80
52919;DHT22;38793;52.690;6.812;2022-09-09T11:20:51;20.10;99.30
52919;DHT22;38793;52.690;6.812;2022-09-09T11:23:25;20.30;99.50
52919;DHT22;38793;52.690;6.812;2022-09-09T11:25:56;20.30;99.10
52919;DHT22;38793;52.690;6.812;2022-09-09T11:28:41;20.40;98.70
52919;DHT22;38793;52.690;6.812;2022-09-09T11:34:04;20.30;98.40
52919;DHT22;38793;52.690;6.812;2022-09-09T11:36:47;20.30;98.60
52919;DHT22;38793;52.690;6.812;2022-09-09T11:41:47;20.10;98.60
52919;DHT22;38793;52.690;6.812;2022-09-09T11:44:19;20.00;98.60
52919;DHT22;38793;52.690;6.812;2022-09-09T11:46:51;19.90;98.50
52919;DHT22;38793;52.690;6.812;2022-09-09T11:49:40;19.90;98.70
52919;DHT22;38793;52.690;6.812;2022-09-09T11:52:34;19.90;98.70
52919;DHT22;38793;52.690;6.812;2022-09-09T11:55:30;19.90;99.00
52919;DHT22;38793;52.690;6.812;2022-09-09T11:58:14;20.00;98.40
52919;DHT22;38793;52.690;6.812;2022-09-09T12:03:31;20.20;98.70
52919;DHT22;38793;52.690;6.812;2022-09-09T12:05:59;20.30;98.50
52919;DHT22;38793;52.690;6.812;2022-09-09T12:08:27;20.40;98.40
52919;DHT22;38793;52.690;6.812;2022-09-09T12:10:57;20.40;98.20
52919;DHT22;38793;52.690;6.812;2022-09-09T12:13:26;20.40;98.00
52919;DHT22;38793;52.690;6.812;2022-09-09T12:15:53;20.20;97.70
52919;DHT22;38793;52.690;6.812;2022-09-09T12:18:36;20.10;97.50
52919;DHT22;38793;52.690;6.812;2022-09-09T12:21:38;20.00;97.80
52919;DHT22;38793;52.690;6.812;2022-09-09T12:24:15;20.00;98.20
52919;DHT22;38793;52.690;6.812;2022-09-09T12:27:25;19.90;98.20
52919;DHT22;38793;52.690;6.812;2022-09-09T12:30:10;20.00;98.40
52919;DHT22;38793;52.690;6.812;2022-09-09T12:32:37;20.00;98.60
52919;DHT22;38793;52.690;6.812;2022-09-09T12:35:19;20.10;99.00
52919;DHT22;38793;52.690;6.812;2022-09-09T12:38:17;20.10;98.80
52919;DHT22;38793;52.690;6.812;2022-09-09T12:40:55;20.10;98.10
52919;DHT22;38793;52.690;6.812;2022-09-09T12:43:23;20.10;98.10
52919;DHT22;38793;52.690;6.812;2022-09-09T12:46:18;20.10;98.40
52919;DHT22;38793;52.690;6.812;2022-09-09T12:48:40;20.10;98.30
52919;DHT22;38793;52.690;6.812;2022-09-09T12:51:24;20.00;98.50
52919;DHT22;38793;52.690;6.812;2022-09-09T12:53:51;20.00;98.50
52919;DHT22;38793;52.690;6.812;2022-09-09T12:56:20;19.90;98.60
52919;DHT22;38793;52.690;6.812;2022-09-09T12:58:48;19.90;98.90
52919;DHT22;38793;52.690;6.812;2022-09-09T13:01:27;19.80;98.80
52919;DHT22;38793;52.690;6.812;2022-09-09T13:03:54;19.70;98.80
52919;DHT22;38793;52.690;6.812;2022-09-09T13:06:30;19.70;99.50
52919;DHT22;38793;52.690;6.812;2022-09-09T13:08:58;19.50;99.90
52919;DHT22;38793;52.690;6.812;2022-09-09T13:13:57;19.50;99.90
52919;DHT22;38793;52.690;6.812;2022-09-09T13:16:29;19.60;99.90
52919;DHT22;38793;52.690;6.812;2022-09-09T13:19:06;19.60;99.90
52919;DHT22;38793;52.690;6.812;2022-09-09T13:21:37;19.70;99.90
52919;DHT22;38793;52.690;6.812;2022-09-09T13:24:05;19.80;99.90
52919;DHT22;38793;52.690;6.812;2022-09-09T13:26:33;20.00;99.90
52919;DHT22;38793;52.690;6.812;2022-09-09T13:29:29;20.00;99.90
52919;DHT22;38793;52.690;6.812;2022-09-09T13:32:05;19.90;99.90
52919;DHT22;38793;52.690;6.812;2022-09-09T13:34:35;19.90;99.90
52919;DHT22;38793;52.690;6.812;2022-09-09T13:37:03;19.80;99.90
52919;DHT22;38793;52.690;6.812;2022-09-09T13:39:33;19.70;99.90
52919;DHT22;38793;52.690;6.812;2022-09-09T13:42:00;19.60;99.90
52919;DHT22;38793;52.690;6.812;2022-09-09T13:44:31;19.60;99.80
52919;DHT22;38793;52.690;6.812;2022-09-09T13:47:02;19.50;99.90
52919;DHT22;38793;52.690;6.812;2022-09-09T13:49:29;19.50;99.90
52919;DHT22;38793;52.690;6.812;2022-09-09T13:52:15;19.50;99.80
52919;DHT22;38793;52.690;6.812;2022-09-09T13:54:42;19.40;99.90
52919;DHT22;38793;52.690;6.812;2022-09-09T13:57:18;19.40;99.90
52919;DHT22;38793;52.690;6.812;2022-09-09T13:59:45;19.10;99.90
52919;DHT22;38793;52.690;6.812;2022-09-09T14:02:11;18.60;99.90
52919;DHT22;38793;52.690;6.812;2022-09-09T14:04:37;18.20;99.90
52919;DHT22;38793;52.690;6.812;2022-09-09T14:07:03;17.80;99.90
52919;DHT22;38793;52.690;6.812;2022-09-09T14:09:28;17.50;99.90
52919;DHT22;38793;52.690;6.812;2022-09-09T14:11:54;17.40;99.90
52919;DHT22;38793;52.690;6.812;2022-09-09T14:14:22;17.20;99.90
52919;DHT22;38793;52.690;6.812;2022-09-09T14:16:48;17.20;99.90
52919;DHT22;38793;52.690;6.812;2022-09-09T14:19:14;17.20;99.90
52919;DHT22;38793;52.690;6.812;2022-09-09T14:21:39;17.20;99.90
52919;DHT22;38793;52.690;6.812;2022-09-09T14:24:05;17.30;99.90
52919;DHT22;38793;52.690;6.812;2022-09-09T14:26:31;17.30;99.90
52919;DHT22;38793;52.690;6.812;2022-09-09T14:28:57;17.40;99.90
52919;DHT22;38793;52.690;6.812;2022-09-09T14:31:24;17.50;99.90
52919;DHT22;38793;52.690;6.812;2022-09-09T14:33:50;17.70;99.90
52919;DHT22;38793;52.690;6.812;2022-09-09T14:36:16;17.90;99.90
52919;DHT22;38793;52.690;6.812;2022-09-09T14:38:41;17.90;99.90
52919;DHT22;38793;52.690;6.812;2022-09-09T14:41:17;18.00;99.90
52919;DHT22;38793;52.690;6.812;2022-09-09T14:43:43;18.00;99.90
52919;DHT22;38793;52.690;6.812;2022-09-09T14:46:14;18.00;99.90
52919;DHT22;38793;52.690;6.812;2022-09-09T14:48:40;18.10;99.90
52919;DHT22;38793;52.690;6.812;2022-09-09T14:51:11;18.10;99.90
52919;DHT22;38793;52.690;6.812;2022-09-09T14:53:39;18.10;99.90
52919;DHT22;38793;52.690;6.812;2022-09-09T14:56:06;18.20;99.90
52919;DHT22;38793;52.690;6.812;2022-09-09T14:58:32;18.20;99.90
52919;DHT22;38793;52.690;6.812;2022-09-09T15:01:06;18.20;99.90
52919;DHT22;38793;52.690;6.812;2022-09-09T15:03:32;18.20;99.90
52919;DHT22;38793;52.690;6.812;2022-09-09T15:05:57;18.20;99.90
52919;DHT22;38793;52.690;6.812;2022-09-09T15:08:26;18.10;99.90
52919;DHT22;38793;52.690;6.812;2022-09-09T15:10:59;18.20;99.90
52919;DHT22;38793;52.690;6.812;2022-09-09T15:13:25;18.20;99.90
52919;DHT22;38793;52.690;6.812;2022-09-09T15:15:50;18.20;99.90
52919;DHT22;38793;52.690;6.812;2022-09-09T15:18:16;18.20;99.90
52919;DHT22;38793;52.690;6.812;2022-09-09T15:20:45;18.20;99.90
52919;DHT22;38793;52.690;6.812;2022-09-09T15:23:12;18.20;99.90
52919;DHT22;38793;52.690;6.812;2022-09-09T15:25:38;18.30;99.90
52919;DHT22;38793;52.690;6.812;2022-09-09T15:28:03;18.30;99.90
52919;DHT22;38793;52.690;6.812;2022-09-09T15:30:29;18.30;99.90
52919;DHT22;38793;52.690;6.812;2022-09-09T15:32:54;18.20;99.90
52919;DHT22;38793;52.690;6.812;2022-09-09T15:35:20;18.30;99.90
52919;DHT22;38793;52.690;6.812;2022-09-09T15:37:45;18.30;99.90
52919;DHT22;38793;52.690;6.812;2022-09-09T15:40:11;18.20;99.90
52919;DHT22;38793;52.690;6.812;2022-09-09T15:42:37;18.20;99.90
52919;DHT22;38793;52.690;6.812;2022-09-09T15:45:03;18.20;99.90
52919;DHT22;38793;52.690;6.812;2022-09-09T15:47:30;18.20;99.90
52919;DHT22;38793;52.690;6.812;2022-09-09T15:49:55;18.20;99.90
52919;DHT22;38793;52.690;6.812;2022-09-09T15:52:21;18.20;99.90
52919;DHT22;38793;52.690;6.812;2022-09-09T15:54:47;18.20;99.90
52919;DHT22;38793;52.690;6.812;2022-09-09T15:57:13;18.20;99.90
52919;DHT22;38793;52.690;6.812;2022-09-09T15:59:39;18.20;99.90
52919;DHT22;38793;52.690;6.812;2022-09-09T16:02:05;18.20;99.90
52919;DHT22;38793;52.690;6.812;2022-09-09T16:04:31;18.10;99.90
52919;DHT22;38793;52.690;6.812;2022-09-09T16:07:02;18.10;99.90
52919;DHT22;38793;52.690;6.812;2022-09-09T16:09:28;18.10;99.90
52919;DHT22;38793;52.690;6.812;2022-09-09T16:11:57;18.10;99.90
52919;DHT22;38793;52.690;6.812;2022-09-09T16:14:23;18.10;99.90
52919;DHT22;38793;52.690;6.812;2022-09-09T16:16:50;18.10;99.90
52919;DHT22;38793;52.690;6.812;2022-09-09T16:19:16;18.10;99.90
52919;DHT22;38793;52.690;6.812;2022-09-09T16:21:44;18.10;99.90
52919;DHT22;38793;52.690;6.812;2022-09-09T16:24:13;18.10;99.90
52919;DHT22;38793;52.690;6.812;2022-09-09T16:26:41;18.10;99.90
52919;DHT22;38793;52.690;6.812;2022-09-09T16:29:08;18.10;99.90
52919;DHT22;38793;52.690;6.812;2022-09-09T16:31:34;18.10;99.90
52919;DHT22;38793;52.690;6.812;2022-09-09T16:34:00;18.10;99.90
52919;DHT22;38793;52.690;6.812;2022-09-09T16:36:27;18.20;99.90
52919;DHT22;38793;52.690;6.812;2022-09-09T16:38:54;18.30;99.90
52919;DHT22;38793;52.690;6.812;2022-09-09T16:41:20;18.30;99.90
52919;DHT22;38793;52.690;6.812;2022-09-09T16:43:46;18.30;99.90
52919;DHT22;38793;52.690;6.812;2022-09-09T16:46:17;18.30;99.90
52919;DHT22;38793;52.690;6.812;2022-09-09T16:48:44;18.30;99.90
52919;DHT22;38793;52.690;6.812;2022-09-09T16:51:21;18.20;99.90
52919;DHT22;38793;52.690;6.812;2022-09-09T16:53:48;18.20;99.90
52919;DHT22;38793;52.690;6.812;2022-09-09T16:56:18;18.20;99.90
52919;DHT22;38793;52.690;6.812;2022-09-09T16:58:52;18.10;99.90
52919;DHT22;38793;52.690;6.812;2022-09-09T17:01:22;18.10;99.90
52919;DHT22;38793;52.690;6.812;2022-09-09T17:03:51;18.10;99.90
52919;DHT22;38793;52.690;6.812;2022-09-09T17:06:17;18.10;99.90
52919;DHT22;38793;52.690;6.812;2022-09-09T17:08:42;18.10;99.90
52919;DHT22;38793;52.690;6.812;2022-09-09T17:11:15;18.10;99.90
52919;DHT22;38793;52.690;6.812;2022-09-09T17:13:46;18.00;99.90
52919;DHT22;38793;52.690;6.812;2022-09-09T17:16:14;18.00;99.90